18A

Franklin County Airport

Canon, Georgia, USA
METAR K18A 161955Z AUTO 00000KT 10SM CLR 29/24 A3001 RMK AO2 LTG DSNT NE AND NW T02850238
Observed Flight Rules
Jul-16 @ 19:55 UTC (16 minutes ago) Visual Flight Rules
Visibility Clouds
10 miles
  • Clear skies
Temperatures Readings
Current 29°C / 84°F
Dewpoint 24°C / 75°F
Humidity 74%
Altimeter 30.01" Hg
Pressure 1016 hPa
Elevation 271
METAR K18A 161955Z AUTO 00000KT 10SM CLR 29/24 A3001 RMK AO2 LTG DSNT NE AND NW T02850238
Observed Flight Rules
Jul-16 @ 19:55 UTC
(16 minutes ago)
VFR
Clouds
  • Clear skies
Temperature Dewpoint
29°C / 84°F 24°C / 75°F
Humidity Altimeter Pressure
74% 30.01" Hg 1016 hPa